sensor_id;sensor_type;location;lat;lon;timestamp;P1;durP1;ratioP1;P2;durP2;ratioP2
72301;SDS011;73902;52.234;5.186;2024-03-06T00:01:45;53.80;;;20.85;;
72301;SDS011;73902;52.234;5.186;2024-03-06T00:04:11;51.83;;;20.77;;
72301;SDS011;73902;52.234;5.186;2024-03-06T00:06:37;54.33;;;23.20;;
72301;SDS011;73902;52.234;5.186;2024-03-06T00:09:03;53.55;;;22.65;;
72301;SDS011;73902;52.234;5.186;2024-03-06T00:11:29;59.60;;;25.00;;
72301;SDS011;73902;52.234;5.186;2024-03-06T00:13:55;55.88;;;22.92;;
72301;SDS011;73902;52.234;5.186;2024-03-06T00:16:21;54.78;;;23.17;;
72301;SDS011;73902;52.234;5.186;2024-03-06T00:18:47;52.97;;;23.45;;
72301;SDS011;73902;52.234;5.186;2024-03-06T00:21:13;55.17;;;22.40;;
72301;SDS011;73902;52.234;5.186;2024-03-06T00:23:40;58.55;;;24.08;;
72301;SDS011;73902;52.234;5.186;2024-03-06T00:26:06;58.17;;;24.45;;
72301;SDS011;73902;52.234;5.186;2024-03-06T00:28:32;55.70;;;22.13;;
72301;SDS011;73902;52.234;5.186;2024-03-06T00:30:58;54.50;;;22.13;;
72301;SDS011;73902;52.234;5.186;2024-03-06T00:33:24;55.20;;;21.88;;
72301;SDS011;73902;52.234;5.186;2024-03-06T00:35:50;57.03;;;24.85;;
72301;SDS011;73902;52.234;5.186;2024-03-06T00:38:16;58.85;;;23.58;;
72301;SDS011;73902;52.234;5.186;2024-03-06T00:40:42;54.10;;;23.65;;
72301;SDS011;73902;52.234;5.186;2024-03-06T00:43:08;59.85;;;25.23;;
72301;SDS011;73902;52.234;5.186;2024-03-06T00:45:34;55.80;;;23.65;;
72301;SDS011;73902;52.234;5.186;2024-03-06T00:48:00;56.72;;;23.40;;
72301;SDS011;73902;52.234;5.186;2024-03-06T00:50:26;54.58;;;24.27;;
72301;SDS011;73902;52.234;5.186;2024-03-06T00:52:52;59.40;;;22.30;;
72301;SDS011;73902;52.234;5.186;2024-03-06T00:55:18;57.40;;;23.25;;
72301;SDS011;73902;52.234;5.186;2024-03-06T00:57:44;56.95;;;23.13;;
72301;SDS011;73902;52.234;5.186;2024-03-06T01:00:10;54.20;;;22.13;;
72301;SDS011;73902;52.234;5.186;2024-03-06T01:02:37;53.00;;;23.27;;
72301;SDS011;73902;52.234;5.186;2024-03-06T01:05:03;56.50;;;22.60;;
72301;SDS011;73902;52.234;5.186;2024-03-06T01:07:29;55.85;;;22.58;;
72301;SDS011;73902;52.234;5.186;2024-03-06T01:09:55;55.67;;;23.60;;
72301;SDS011;73902;52.234;5.186;2024-03-06T01:12:22;53.25;;;22.38;;
72301;SDS011;73902;52.234;5.186;2024-03-06T01:14:48;52.28;;;22.42;;
72301;SDS011;73902;52.234;5.186;2024-03-06T01:17:14;57.70;;;23.85;;
72301;SDS011;73902;52.234;5.186;2024-03-06T01:19:40;58.58;;;24.02;;
72301;SDS011;73902;52.234;5.186;2024-03-06T01:22:08;58.78;;;23.48;;
72301;SDS011;73902;52.234;5.186;2024-03-06T01:24:34;52.53;;;23.52;;
72301;SDS011;73902;52.234;5.186;2024-03-06T01:27:00;53.50;;;22.42;;
72301;SDS011;73902;52.234;5.186;2024-03-06T01:29:28;53.15;;;22.08;;
72301;SDS011;73902;52.234;5.186;2024-03-06T01:31:54;55.50;;;22.88;;
72301;SDS011;73902;52.234;5.186;2024-03-06T01:34:20;56.60;;;23.00;;
72301;SDS011;73902;52.234;5.186;2024-03-06T01:36:47;52.45;;;21.77;;
72301;SDS011;73902;52.234;5.186;2024-03-06T01:39:13;53.75;;;23.17;;
72301;SDS011;73902;52.234;5.186;2024-03-06T01:41:45;51.53;;;22.67;;
72301;SDS011;73902;52.234;5.186;2024-03-06T01:44:11;55.58;;;22.95;;
72301;SDS011;73902;52.234;5.186;2024-03-06T01:46:38;56.47;;;23.13;;
72301;SDS011;73902;52.234;5.186;2024-03-06T01:49:04;52.90;;;21.98;;
72301;SDS011;73902;52.234;5.186;2024-03-06T01:51:30;51.85;;;22.55;;
72301;SDS011;73902;52.234;5.186;2024-03-06T01:53:57;51.30;;;21.63;;
72301;SDS011;73902;52.234;5.186;2024-03-06T01:56:23;53.80;;;21.95;;
72301;SDS011;73902;52.234;5.186;2024-03-06T01:58:49;52.28;;;22.65;;
72301;SDS011;73902;52.234;5.186;2024-03-06T02:01:16;51.72;;;22.13;;
72301;SDS011;73902;52.234;5.186;2024-03-06T02:03:42;50.17;;;21.75;;
72301;SDS011;73902;52.234;5.186;2024-03-06T02:06:09;47.55;;;21.75;;
72301;SDS011;73902;52.234;5.186;2024-03-06T02:08:36;51.05;;;21.77;;
72301;SDS011;73902;52.234;5.186;2024-03-06T02:11:02;43.30;;;21.02;;
72301;SDS011;73902;52.234;5.186;2024-03-06T02:13:28;47.95;;;20.55;;
72301;SDS011;73902;52.234;5.186;2024-03-06T02:15:54;52.58;;;21.67;;
72301;SDS011;73902;52.234;5.186;2024-03-06T02:18:20;48.08;;;22.08;;
72301;SDS011;73902;52.234;5.186;2024-03-06T02:20:46;49.80;;;21.42;;
72301;SDS011;73902;52.234;5.186;2024-03-06T02:23:15;47.10;;;21.83;;
72301;SDS011;73902;52.234;5.186;2024-03-06T02:25:42;44.08;;;20.45;;
72301;SDS011;73902;52.234;5.186;2024-03-06T02:28:09;50.97;;;22.00;;
72301;SDS011;73902;52.234;5.186;2024-03-06T02:30:35;46.30;;;20.48;;
72301;SDS011;73902;52.234;5.186;2024-03-06T02:33:02;46.85;;;20.17;;
72301;SDS011;73902;52.234;5.186;2024-03-06T02:35:31;43.42;;;19.70;;
72301;SDS011;73902;52.234;5.186;2024-03-06T02:37:58;51.03;;;22.27;;
72301;SDS011;73902;52.234;5.186;2024-03-06T02:40:24;45.72;;;20.15;;
72301;SDS011;73902;52.234;5.186;2024-03-06T02:42:50;42.92;;;19.50;;
72301;SDS011;73902;52.234;5.186;2024-03-06T02:45:16;46.78;;;20.65;;
72301;SDS011;73902;52.234;5.186;2024-03-06T02:47:44;44.25;;;19.85;;
72301;SDS011;73902;52.234;5.186;2024-03-06T02:50:10;39.78;;;18.67;;
72301;SDS011;73902;52.234;5.186;2024-03-06T02:52:36;42.33;;;19.63;;
72301;SDS011;73902;52.234;5.186;2024-03-06T02:55:02;47.53;;;20.80;;
72301;SDS011;73902;52.234;5.186;2024-03-06T02:57:28;49.20;;;20.73;;
72301;SDS011;73902;52.234;5.186;2024-03-06T02:59:57;43.25;;;19.90;;
72301;SDS011;73902;52.234;5.186;2024-03-06T03:02:24;43.70;;;20.40;;
72301;SDS011;73902;52.234;5.186;2024-03-06T03:04:50;46.75;;;21.70;;
72301;SDS011;73902;52.234;5.186;2024-03-06T03:07:17;45.88;;;21.27;;
72301;SDS011;73902;52.234;5.186;2024-03-06T03:09:44;47.55;;;21.92;;
72301;SDS011;73902;52.234;5.186;2024-03-06T03:12:10;46.97;;;21.83;;
72301;SDS011;73902;52.234;5.186;2024-03-06T03:14:37;50.75;;;21.23;;
72301;SDS011;73902;52.234;5.186;2024-03-06T03:17:03;43.42;;;19.67;;
72301;SDS011;73902;52.234;5.186;2024-03-06T03:19:31;44.28;;;21.05;;
72301;SDS011;73902;52.234;5.186;2024-03-06T03:21:57;43.65;;;20.08;;
72301;SDS011;73902;52.234;5.186;2024-03-06T03:24:23;49.83;;;21.45;;
72301;SDS011;73902;52.234;5.186;2024-03-06T03:26:51;43.15;;;20.13;;
72301;SDS011;73902;52.234;5.186;2024-03-06T03:29:17;48.40;;;20.73;;
72301;SDS011;73902;52.234;5.186;2024-03-06T03:31:43;52.20;;;22.63;;
72301;SDS011;73902;52.234;5.186;2024-03-06T03:34:09;44.40;;;20.70;;
72301;SDS011;73902;52.234;5.186;2024-03-06T03:36:41;44.20;;;20.55;;
72301;SDS011;73902;52.234;5.186;2024-03-06T03:39:07;43.80;;;20.25;;
72301;SDS011;73902;52.234;5.186;2024-03-06T03:41:45;46.10;;;20.27;;
72301;SDS011;73902;52.234;5.186;2024-03-06T03:46:37;42.03;;;20.48;;
72301;SDS011;73902;52.234;5.186;2024-03-06T03:49:03;50.90;;;20.10;;
72301;SDS011;73902;52.234;5.186;2024-03-06T03:51:30;41.88;;;20.10;;
72301;SDS011;73902;52.234;5.186;2024-03-06T03:53:56;47.88;;;20.80;;
72301;SDS011;73902;52.234;5.186;2024-03-06T03:56:22;42.92;;;20.27;;
72301;SDS011;73902;52.234;5.186;2024-03-06T03:58:48;48.92;;;20.65;;
72301;SDS011;73902;52.234;5.186;2024-03-06T04:01:14;43.25;;;18.77;;
72301;SDS011;73902;52.234;5.186;2024-03-06T04:03:39;45.75;;;20.25;;
72301;SDS011;73902;52.234;5.186;2024-03-06T04:06:07;47.58;;;22.40;;
72301;SDS011;73902;52.234;5.186;2024-03-06T04:08:33;45.38;;;20.75;;
72301;SDS011;73902;52.234;5.186;2024-03-06T04:10:59;49.95;;;23.50;;
72301;SDS011;73902;52.234;5.186;2024-03-06T04:13:25;47.75;;;22.42;;
72301;SDS011;73902;52.234;5.186;2024-03-06T04:15:51;51.67;;;20.80;;
72301;SDS011;73902;52.234;5.186;2024-03-06T04:18:17;42.97;;;20.85;;
72301;SDS011;73902;52.234;5.186;2024-03-06T04:20:43;46.88;;;20.25;;
72301;SDS011;73902;52.234;5.186;2024-03-06T04:23:09;46.90;;;21.52;;
72301;SDS011;73902;52.234;5.186;2024-03-06T04:25:35;56.63;;;23.52;;
72301;SDS011;73902;52.234;5.186;2024-03-06T04:28:02;51.20;;;24.35;;
72301;SDS011;73902;52.234;5.186;2024-03-06T04:30:28;54.25;;;22.88;;
72301;SDS011;73902;52.234;5.186;2024-03-06T04:32:54;49.95;;;22.65;;
72301;SDS011;73902;52.234;5.186;2024-03-06T04:35:20;49.83;;;21.30;;
72301;SDS011;73902;52.234;5.186;2024-03-06T04:37:46;45.70;;;19.70;;
72301;SDS011;73902;52.234;5.186;2024-03-06T04:40:12;50.50;;;21.52;;
72301;SDS011;73902;52.234;5.186;2024-03-06T04:42:44;49.17;;;21.77;;
72301;SDS011;73902;52.234;5.186;2024-03-06T04:45:11;46.42;;;21.13;;
72301;SDS011;73902;52.234;5.186;2024-03-06T04:47:37;53.60;;;22.35;;
72301;SDS011;73902;52.234;5.186;2024-03-06T04:50:03;46.05;;;21.17;;
72301;SDS011;73902;52.234;5.186;2024-03-06T04:52:34;48.58;;;20.85;;
72301;SDS011;73902;52.234;5.186;2024-03-06T04:55:00;47.80;;;22.13;;
72301;SDS011;73902;52.234;5.186;2024-03-06T04:57:28;49.83;;;22.73;;
72301;SDS011;73902;52.234;5.186;2024-03-06T04:59:54;43.38;;;20.58;;
72301;SDS011;73902;52.234;5.186;2024-03-06T05:02:22;48.78;;;20.67;;
72301;SDS011;73902;52.234;5.186;2024-03-06T05:04:48;46.45;;;20.88;;
72301;SDS011;73902;52.234;5.186;2024-03-06T05:07:14;45.85;;;20.25;;
72301;SDS011;73902;52.234;5.186;2024-03-06T05:09:40;44.08;;;19.33;;
72301;SDS011;73902;52.234;5.186;2024-03-06T05:12:06;46.22;;;20.88;;
72301;SDS011;73902;52.234;5.186;2024-03-06T05:14:33;51.33;;;21.17;;
72301;SDS011;73902;52.234;5.186;2024-03-06T05:16:59;48.45;;;20.38;;
72301;SDS011;73902;52.234;5.186;2024-03-06T05:19:25;43.78;;;19.52;;
72301;SDS011;73902;52.234;5.186;2024-03-06T05:21:58;47.72;;;21.60;;
72301;SDS011;73902;52.234;5.186;2024-03-06T05:24:24;51.00;;;21.23;;
72301;SDS011;73902;52.234;5.186;2024-03-06T05:26:50;47.35;;;20.02;;
72301;SDS011;73902;52.234;5.186;2024-03-06T05:29:16;48.08;;;20.98;;
72301;SDS011;73902;52.234;5.186;2024-03-06T05:31:43;43.90;;;19.90;;
72301;SDS011;73902;52.234;5.186;2024-03-06T05:34:09;50.30;;;21.45;;
72301;SDS011;73902;52.234;5.186;2024-03-06T05:36:35;45.22;;;20.55;;
72301;SDS011;73902;52.234;5.186;2024-03-06T05:39:01;47.22;;;20.40;;
72301;SDS011;73902;52.234;5.186;2024-03-06T05:41:31;48.47;;;20.48;;
72301;SDS011;73902;52.234;5.186;2024-03-06T05:43:57;50.95;;;22.25;;
72301;SDS011;73902;52.234;5.186;2024-03-06T05:46:23;45.80;;;21.67;;
72301;SDS011;73902;52.234;5.186;2024-03-06T05:48:50;50.33;;;21.83;;
72301;SDS011;73902;52.234;5.186;2024-03-06T05:51:16;43.58;;;21.25;;
72301;SDS011;73902;52.234;5.186;2024-03-06T05:53:42;48.95;;;20.40;;
72301;SDS011;73902;52.234;5.186;2024-03-06T05:56:09;44.45;;;19.20;;
72301;SDS011;73902;52.234;5.186;2024-03-06T05:58:35;47.30;;;22.35;;
72301;SDS011;73902;52.234;5.186;2024-03-06T06:01:01;50.80;;;20.70;;
72301;SDS011;73902;52.234;5.186;2024-03-06T06:03:28;49.20;;;22.08;;
72301;SDS011;73902;52.234;5.186;2024-03-06T06:05:54;52.35;;;21.60;;
72301;SDS011;73902;52.234;5.186;2024-03-06T06:08:20;48.40;;;21.15;;
72301;SDS011;73902;52.234;5.186;2024-03-06T06:10:46;51.13;;;22.65;;
72301;SDS011;73902;52.234;5.186;2024-03-06T06:13:12;46.85;;;21.25;;
72301;SDS011;73902;52.234;5.186;2024-03-06T06:15:39;47.58;;;21.08;;
72301;SDS011;73902;52.234;5.186;2024-03-06T06:18:06;51.78;;;21.80;;
72301;SDS011;73902;52.234;5.186;2024-03-06T06:20:32;50.15;;;22.33;;
72301;SDS011;73902;52.234;5.186;2024-03-06T06:22:58;49.88;;;21.98;;
72301;SDS011;73902;52.234;5.186;2024-03-06T06:25:24;51.95;;;21.60;;
72301;SDS011;73902;52.234;5.186;2024-03-06T06:27:50;56.65;;;22.48;;
72301;SDS011;73902;52.234;5.186;2024-03-06T06:30:16;52.45;;;23.30;;
72301;SDS011;73902;52.234;5.186;2024-03-06T06:32:43;57.10;;;22.52;;
72301;SDS011;73902;52.234;5.186;2024-03-06T06:35:12;51.53;;;21.90;;
72301;SDS011;73902;52.234;5.186;2024-03-06T06:37:41;61.20;;;24.33;;
72301;SDS011;73902;52.234;5.186;2024-03-06T06:40:07;55.40;;;23.50;;
72301;SDS011;73902;52.234;5.186;2024-03-06T06:42:36;50.20;;;21.23;;
72301;SDS011;73902;52.234;5.186;2024-03-06T06:45:03;51.97;;;22.67;;
72301;SDS011;73902;52.234;5.186;2024-03-06T06:47:31;48.30;;;21.80;;
72301;SDS011;73902;52.234;5.186;2024-03-06T06:49:57;51.90;;;21.27;;
72301;SDS011;73902;52.234;5.186;2024-03-06T06:52:23;55.75;;;23.02;;
72301;SDS011;73902;52.234;5.186;2024-03-06T06:54:52;80.88;;;29.50;;
72301;SDS011;73902;52.234;5.186;2024-03-06T06:57:18;92.82;;;35.10;;
72301;SDS011;73902;52.234;5.186;2024-03-06T06:59:45;100.25;;;37.88;;
72301;SDS011;73902;52.234;5.186;2024-03-06T07:02:11;90.88;;;36.08;;
72301;SDS011;73902;52.234;5.186;2024-03-06T07:04:37;100.47;;;41.42;;
72301;SDS011;73902;52.234;5.186;2024-03-06T07:07:03;100.30;;;40.50;;
72301;SDS011;73902;52.234;5.186;2024-03-06T07:09:28;96.28;;;38.90;;
72301;SDS011;73902;52.234;5.186;2024-03-06T07:11:55;81.65;;;33.28;;
72301;SDS011;73902;52.234;5.186;2024-03-06T07:14:21;87.13;;;32.35;;
72301;SDS011;73902;52.234;5.186;2024-03-06T07:16:47;92.88;;;36.80;;
72301;SDS011;73902;52.234;5.186;2024-03-06T07:19:13;105.28;;;34.70;;
72301;SDS011;73902;52.234;5.186;2024-03-06T07:21:39;97.95;;;31.13;;
72301;SDS011;73902;52.234;5.186;2024-03-06T07:24:05;102.93;;;32.53;;
72301;SDS011;73902;52.234;5.186;2024-03-06T07:26:34;90.85;;;27.27;;
72301;SDS011;73902;52.234;5.186;2024-03-06T07:29:01;112.10;;;27.45;;
72301;SDS011;73902;52.234;5.186;2024-03-06T07:31:27;78.03;;;26.83;;
72301;SDS011;73902;52.234;5.186;2024-03-06T07:33:53;102.45;;;29.05;;
72301;SDS011;73902;52.234;5.186;2024-03-06T07:36:20;108.82;;;29.98;;
72301;SDS011;73902;52.234;5.186;2024-03-06T07:38:47;99.03;;;27.65;;
72301;SDS011;73902;52.234;5.186;2024-03-06T07:41:13;86.25;;;25.00;;
72301;SDS011;73902;52.234;5.186;2024-03-06T07:43:39;71.00;;;26.30;;
72301;SDS011;73902;52.234;5.186;2024-03-06T07:46:05;83.25;;;25.02;;
72301;SDS011;73902;52.234;5.186;2024-03-06T07:48:36;62.80;;;24.63;;
72301;SDS011;73902;52.234;5.186;2024-03-06T07:51:02;70.63;;;26.45;;
72301;SDS011;73902;52.234;5.186;2024-03-06T07:53:29;60.42;;;25.88;;
72301;SDS011;73902;52.234;5.186;2024-03-06T07:55:55;58.72;;;23.42;;
72301;SDS011;73902;52.234;5.186;2024-03-06T07:58:21;62.67;;;23.30;;
72301;SDS011;73902;52.234;5.186;2024-03-06T08:00:47;68.97;;;25.50;;
72301;SDS011;73902;52.234;5.186;2024-03-06T08:03:14;54.10;;;24.17;;
72301;SDS011;73902;52.234;5.186;2024-03-06T08:05:40;59.13;;;24.05;;
72301;SDS011;73902;52.234;5.186;2024-03-06T08:08:06;64.03;;;24.63;;
72301;SDS011;73902;52.234;5.186;2024-03-06T08:10:32;59.17;;;23.88;;
72301;SDS011;73902;52.234;5.186;2024-03-06T08:12:58;59.78;;;25.38;;
72301;SDS011;73902;52.234;5.186;2024-03-06T08:15:24;57.88;;;24.60;;
72301;SDS011;73902;52.234;5.186;2024-03-06T08:17:50;61.58;;;24.52;;
72301;SDS011;73902;52.234;5.186;2024-03-06T08:20:17;60.30;;;24.80;;
72301;SDS011;73902;52.234;5.186;2024-03-06T08:22:43;56.58;;;24.42;;
72301;SDS011;73902;52.234;5.186;2024-03-06T08:25:10;57.17;;;24.30;;
72301;SDS011;73902;52.234;5.186;2024-03-06T08:27:38;54.78;;;24.73;;
72301;SDS011;73902;52.234;5.186;2024-03-06T08:30:04;56.47;;;23.80;;
72301;SDS011;73902;52.234;5.186;2024-03-06T08:32:31;54.47;;;23.58;;
72301;SDS011;73902;52.234;5.186;2024-03-06T08:35:00;56.95;;;25.60;;
72301;SDS011;73902;52.234;5.186;2024-03-06T08:37:26;55.03;;;23.45;;
72301;SDS011;73902;52.234;5.186;2024-03-06T08:39:52;49.67;;;23.20;;
72301;SDS011;73902;52.234;5.186;2024-03-06T08:42:18;53.78;;;22.60;;
72301;SDS011;73902;52.234;5.186;2024-03-06T08:44:44;57.78;;;24.13;;
72301;SDS011;73902;52.234;5.186;2024-03-06T08:47:11;53.58;;;23.08;;
72301;SDS011;73902;52.234;5.186;2024-03-06T08:49:38;52.78;;;22.45;;
72301;SDS011;73902;52.234;5.186;2024-03-06T08:52:04;52.65;;;23.42;;
72301;SDS011;73902;52.234;5.186;2024-03-06T08:54:30;52.88;;;24.02;;
72301;SDS011;73902;52.234;5.186;2024-03-06T08:56:57;58.05;;;23.27;;
72301;SDS011;73902;52.234;5.186;2024-03-06T08:59:24;56.33;;;23.58;;
72301;SDS011;73902;52.234;5.186;2024-03-06T09:01:53;60.78;;;26.73;;
72301;SDS011;73902;52.234;5.186;2024-03-06T09:04:20;57.95;;;25.30;;
72301;SDS011;73902;52.234;5.186;2024-03-06T09:06:46;50.80;;;23.35;;
72301;SDS011;73902;52.234;5.186;2024-03-06T09:09:14;49.22;;;21.50;;
72301;SDS011;73902;52.234;5.186;2024-03-06T09:11:42;58.50;;;24.77;;
72301;SDS011;73902;52.234;5.186;2024-03-06T09:14:09;53.55;;;23.27;;
72301;SDS011;73902;52.234;5.186;2024-03-06T09:16:35;53.80;;;23.60;;
72301;SDS011;73902;52.234;5.186;2024-03-06T09:19:01;53.35;;;22.50;;
72301;SDS011;73902;52.234;5.186;2024-03-06T09:21:27;45.13;;;20.98;;
72301;SDS011;73902;52.234;5.186;2024-03-06T09:23:53;46.22;;;20.73;;
72301;SDS011;73902;52.234;5.186;2024-03-06T09:26:19;43.45;;;20.02;;
72301;SDS011;73902;52.234;5.186;2024-03-06T09:28:45;42.28;;;20.35;;
72301;SDS011;73902;52.234;5.186;2024-03-06T09:31:11;43.00;;;18.38;;
72301;SDS011;73902;52.234;5.186;2024-03-06T09:33:41;37.20;;;18.30;;
72301;SDS011;73902;52.234;5.186;2024-03-06T09:36:10;40.85;;;18.58;;
72301;SDS011;73902;52.234;5.186;2024-03-06T09:38:38;38.00;;;19.42;;
72301;SDS011;73902;52.234;5.186;2024-03-06T09:41:05;38.55;;;18.92;;
72301;SDS011;73902;52.234;5.186;2024-03-06T09:43:32;37.80;;;18.08;;
72301;SDS011;73902;52.234;5.186;2024-03-06T09:45:58;39.08;;;18.63;;
72301;SDS011;73902;52.234;5.186;2024-03-06T09:48:26;38.85;;;19.10;;
72301;SDS011;73902;52.234;5.186;2024-03-06T09:50:53;38.47;;;18.38;;
72301;SDS011;73902;52.234;5.186;2024-03-06T09:53:20;38.72;;;17.85;;
72301;SDS011;73902;52.234;5.186;2024-03-06T09:55:47;35.65;;;17.85;;
72301;SDS011;73902;52.234;5.186;2024-03-06T09:58:13;37.45;;;17.75;;
72301;SDS011;73902;52.234;5.186;2024-03-06T10:00:39;35.80;;;17.45;;
72301;SDS011;73902;52.234;5.186;2024-03-06T10:03:05;35.88;;;17.73;;
72301;SDS011;73902;52.234;5.186;2024-03-06T10:05:34;39.72;;;18.40;;
72301;SDS011;73902;52.234;5.186;2024-03-06T10:08:00;40.42;;;17.17;;
72301;SDS011;73902;52.234;5.186;2024-03-06T10:10:26;40.55;;;19.30;;
72301;SDS011;73902;52.234;5.186;2024-03-06T10:12:52;38.75;;;19.73;;
72301;SDS011;73902;52.234;5.186;2024-03-06T10:15:19;40.92;;;18.73;;
72301;SDS011;73902;52.234;5.186;2024-03-06T10:17:46;39.40;;;18.33;;
72301;SDS011;73902;52.234;5.186;2024-03-06T10:22:51;35.92;;;18.08;;
72301;SDS011;73902;52.234;5.186;2024-03-06T10:25:18;39.13;;;18.25;;
72301;SDS011;73902;52.234;5.186;2024-03-06T10:27:45;38.90;;;16.95;;
72301;SDS011;73902;52.234;5.186;2024-03-06T10:30:12;38.30;;;18.02;;
72301;SDS011;73902;52.234;5.186;2024-03-06T10:32:40;38.13;;;17.92;;
72301;SDS011;73902;52.234;5.186;2024-03-06T10:35:17;37.72;;;17.65;;
72301;SDS011;73902;52.234;5.186;2024-03-06T10:37:43;35.45;;;17.17;;
72301;SDS011;73902;52.234;5.186;2024-03-06T10:40:10;35.47;;;17.50;;
72301;SDS011;73902;52.234;5.186;2024-03-06T10:42:40;37.80;;;17.13;;
72301;SDS011;73902;52.234;5.186;2024-03-06T10:47:35;35.50;;;17.25;;
72301;SDS011;73902;52.234;5.186;2024-03-06T10:50:02;35.50;;;16.80;;
72301;SDS011;73902;52.234;5.186;2024-03-06T10:52:30;37.47;;;17.95;;
72301;SDS011;73902;52.234;5.186;2024-03-06T10:54:58;32.20;;;17.33;;
72301;SDS011;73902;52.234;5.186;2024-03-06T10:57:24;34.95;;;17.48;;
72301;SDS011;73902;52.234;5.186;2024-03-06T10:59:52;32.38;;;16.40;;
72301;SDS011;73902;52.234;5.186;2024-03-06T11:02:18;34.08;;;17.23;;
72301;SDS011;73902;52.234;5.186;2024-03-06T11:04:44;33.65;;;16.83;;
72301;SDS011;73902;52.234;5.186;2024-03-06T11:07:11;32.03;;;15.57;;
72301;SDS011;73902;52.234;5.186;2024-03-06T11:09:37;28.52;;;12.70;;
72301;SDS011;73902;52.234;5.186;2024-03-06T11:12:04;33.55;;;15.55;;
72301;SDS011;73902;52.234;5.186;2024-03-06T11:14:36;32.50;;;14.85;;
72301;SDS011;73902;52.234;5.186;2024-03-06T11:19:32;28.23;;;14.45;;
72301;SDS011;73902;52.234;5.186;2024-03-06T11:22:18;30.33;;;15.48;;
72301;SDS011;73902;52.234;5.186;2024-03-06T11:24:44;27.05;;;14.70;;
72301;SDS011;73902;52.234;5.186;2024-03-06T11:27:10;28.95;;;14.20;;
72301;SDS011;73902;52.234;5.186;2024-03-06T11:32:24;29.20;;;15.50;;
72301;SDS011;73902;52.234;5.186;2024-03-06T11:34:50;28.45;;;15.48;;
72301;SDS011;73902;52.234;5.186;2024-03-06T11:37:20;28.27;;;14.57;;
72301;SDS011;73902;52.234;5.186;2024-03-06T11:39:48;28.20;;;13.63;;
72301;SDS011;73902;52.234;5.186;2024-03-06T11:42:14;27.63;;;13.75;;
72301;SDS011;73902;52.234;5.186;2024-03-06T11:44:58;26.05;;;12.70;;
72301;SDS011;73902;52.234;5.186;2024-03-06T11:47:24;28.77;;;13.13;;
72301;SDS011;73902;52.234;5.186;2024-03-06T11:49:57;28.90;;;13.63;;
72301;SDS011;73902;52.234;5.186;2024-03-06T11:52:24;25.52;;;12.57;;
72301;SDS011;73902;52.234;5.186;2024-03-06T11:54:53;26.90;;;13.63;;
72301;SDS011;73902;52.234;5.186;2024-03-06T11:57:19;27.85;;;13.60;;
72301;SDS011;73902;52.234;5.186;2024-03-06T11:59:46;25.35;;;13.13;;
72301;SDS011;73902;52.234;5.186;2024-03-06T12:02:12;27.27;;;13.45;;
72301;SDS011;73902;52.234;5.186;2024-03-06T12:04:38;22.67;;;12.18;;
72301;SDS011;73902;52.234;5.186;2024-03-06T12:07:06;25.10;;;12.50;;
72301;SDS011;73902;52.234;5.186;2024-03-06T12:09:34;27.52;;;12.88;;
72301;SDS011;73902;52.234;5.186;2024-03-06T12:12:00;23.60;;;12.00;;
72301;SDS011;73902;52.234;5.186;2024-03-06T12:14:27;28.05;;;11.65;;
72301;SDS011;73902;52.234;5.186;2024-03-06T12:17:00;27.73;;;12.00;;
72301;SDS011;73902;52.234;5.186;2024-03-06T12:19:31;23.73;;;11.48;;
72301;SDS011;73902;52.234;5.186;2024-03-06T12:22:01;22.55;;;11.38;;
72301;SDS011;73902;52.234;5.186;2024-03-06T12:24:28;22.45;;;11.05;;
72301;SDS011;73902;52.234;5.186;2024-03-06T12:27:01;19.60;;;9.68;;
72301;SDS011;73902;52.234;5.186;2024-03-06T12:29:28;19.10;;;8.98;;
72301;SDS011;73902;52.234;5.186;2024-03-06T12:31:56;18.73;;;8.88;;
72301;SDS011;73902;52.234;5.186;2024-03-06T12:34:22;17.48;;;8.98;;
72301;SDS011;73902;52.234;5.186;2024-03-06T12:36:48;20.38;;;8.15;;
72301;SDS011;73902;52.234;5.186;2024-03-06T12:39:15;20.80;;;8.73;;
72301;SDS011;73902;52.234;5.186;2024-03-06T12:41:45;17.38;;;8.10;;
72301;SDS011;73902;52.234;5.186;2024-03-06T12:44:11;17.58;;;8.73;;
72301;SDS011;73902;52.234;5.186;2024-03-06T12:46:37;17.40;;;7.75;;
72301;SDS011;73902;52.234;5.186;2024-03-06T12:49:03;18.17;;;8.65;;
72301;SDS011;73902;52.234;5.186;2024-03-06T12:51:29;19.15;;;8.02;;
72301;SDS011;73902;52.234;5.186;2024-03-06T12:53:57;17.48;;;8.27;;
72301;SDS011;73902;52.234;5.186;2024-03-06T12:56:24;16.33;;;7.90;;
72301;SDS011;73902;52.234;5.186;2024-03-06T12:58:53;17.27;;;7.70;;
72301;SDS011;73902;52.234;5.186;2024-03-06T13:01:19;16.10;;;7.50;;
72301;SDS011;73902;52.234;5.186;2024-03-06T13:03:45;13.40;;;6.45;;
72301;SDS011;73902;52.234;5.186;2024-03-06T13:06:12;16.52;;;7.93;;
72301;SDS011;73902;52.234;5.186;2024-03-06T13:08:38;14.90;;;7.20;;
72301;SDS011;73902;52.234;5.186;2024-03-06T13:11:04;18.65;;;7.22;;
72301;SDS011;73902;52.234;5.186;2024-03-06T13:13:30;16.63;;;6.80;;
72301;SDS011;73902;52.234;5.186;2024-03-06T13:15:58;15.07;;;6.95;;
72301;SDS011;73902;52.234;5.186;2024-03-06T13:18:24;14.02;;;6.97;;
72301;SDS011;73902;52.234;5.186;2024-03-06T13:20:51;13.00;;;6.25;;
72301;SDS011;73902;52.234;5.186;2024-03-06T13:23:17;16.88;;;6.70;;
72301;SDS011;73902;52.234;5.186;2024-03-06T13:25:43;13.95;;;6.10;;
72301;SDS011;73902;52.234;5.186;2024-03-06T13:28:10;15.00;;;5.97;;
72301;SDS011;73902;52.234;5.186;2024-03-06T13:30:36;15.70;;;6.18;;
72301;SDS011;73902;52.234;5.186;2024-03-06T13:33:04;12.77;;;5.97;;
72301;SDS011;73902;52.234;5.186;2024-03-06T13:35:30;15.20;;;5.85;;
72301;SDS011;73902;52.234;5.186;2024-03-06T13:37:56;14.48;;;6.22;;
72301;SDS011;73902;52.234;5.186;2024-03-06T13:40:22;14.60;;;6.13;;
72301;SDS011;73902;52.234;5.186;2024-03-06T13:42:48;12.23;;;6.18;;
72301;SDS011;73902;52.234;5.186;2024-03-06T13:45:14;17.20;;;6.20;;
72301;SDS011;73902;52.234;5.186;2024-03-06T13:47:41;11.32;;;5.15;;
72301;SDS011;73902;52.234;5.186;2024-03-06T13:50:08;13.35;;;5.05;;
72301;SDS011;73902;52.234;5.186;2024-03-06T13:52:34;12.38;;;5.35;;
72301;SDS011;73902;52.234;5.186;2024-03-06T13:55:00;16.17;;;6.00;;
72301;SDS011;73902;52.234;5.186;2024-03-06T13:57:33;12.82;;;5.20;;
72301;SDS011;73902;52.234;5.186;2024-03-06T14:00:03;12.05;;;4.45;;
72301;SDS011;73902;52.234;5.186;2024-03-06T14:02:30;11.68;;;4.75;;
72301;SDS011;73902;52.234;5.186;2024-03-06T14:04:56;12.10;;;4.55;;
72301;SDS011;73902;52.234;5.186;2024-03-06T14:07:22;11.93;;;4.45;;
72301;SDS011;73902;52.234;5.186;2024-03-06T14:09:51;11.45;;;4.75;;
72301;SDS011;73902;52.234;5.186;2024-03-06T14:14:43;11.32;;;4.25;;
72301;SDS011;73902;52.234;5.186;2024-03-06T14:17:12;11.73;;;4.85;;
72301;SDS011;73902;52.234;5.186;2024-03-06T14:19:39;13.70;;;5.70;;
72301;SDS011;73902;52.234;5.186;2024-03-06T14:22:06;13.88;;;5.03;;
72301;SDS011;73902;52.234;5.186;2024-03-06T14:24:32;13.20;;;5.18;;
72301;SDS011;73902;52.234;5.186;2024-03-06T14:26:58;16.35;;;5.55;;
72301;SDS011;73902;52.234;5.186;2024-03-06T14:29:24;12.60;;;5.15;;
72301;SDS011;73902;52.234;5.186;2024-03-06T14:31:52;14.93;;;5.82;;
72301;SDS011;73902;52.234;5.186;2024-03-06T14:34:18;12.20;;;5.38;;
72301;SDS011;73902;52.234;5.186;2024-03-06T14:36:46;12.52;;;4.72;;